Big Creek (Missouri), Sam Baker State Park (07037300)

StateMissouriLatestGood (404 cfs)
RiverBig CreekRatingObservedEstimated
Updated2020-02-25 22:30 (39 minutes ago)Flood - The river is flooding. Obstacles can be treacherous or deadly. The river should be avoided at this stage for casual trips and definitely for the inexperienced. Trips should be attempted only with protective gear and equipment.Flood(none)1635
Discharge404 cfs (median: 282 cfs)High - The river is high and potentially dangerous, especially for the young and / or inexperienced. Normal stream obstacles are sometimes difficult to navigate. Extended distances can be attempted, but canoe travel may not be advisable.High(none)756
Height2.37 feetGood - Conditions are ideal for a canoe or kayak. Boats typically will drag on fewer than one-quarter of riffles, if at all, and portages are unnecessary or rare. Normal float lengths can be attempted without a problem.Good(none)323
TrendRising (rising over 24 hours)Low - River is low but can still be floated. Some riffles are okay but most come with significant dragging and might need a portage. Float lengths should be reduced to accommodate low flow, dragging, and portages.Low(none)71
USGSExternal icon USGS Site (External icon Google Maps)Poor - River is too low to float comfortably. Most or all riffles will drag or must be portaged and some obstacles (such as slick shelf rock) cause undue problems. Avoid the river at this stage for casual paddling trips.Poor(none)35

Trending Data

Plot Image

Trips for Big Creek (Missouri), Sam Baker State Park (07037300)

DateStartEndDistanceConditionDischargeHeightFishingDetails
Click for details2009-05-08 MO 143 Saint Francis River Total trip distance: 11.6 miles11.3 Good 497 2.94 None NoneNone Bowe, Michelle
Edmond, Brian
Bowe, Michelle; Edmond, Brian
No notes for this trip<i>No notes for this trip</i> USGS Gauge Data:
Sam Baker State Park (07037300)
Discharge: 497
Height: 2.94
<b>USGS Gauge Data:</b></br />Sam Baker State Park (07037300)<br />Discharge: 497<br />Height: 2.94
Source: EdmondSource: Edmond

A total of 1 rows are displayed.

Trip Summary for Big Creek (Missouri), Sam Baker State Park (07037300)

Miles11.3
Trips1
People2
Dates1
Years1
Months1
Rows1
Sources1

Condition Descriptions

Fishing Conditions

Fish Species

Notes

Classic Trip List

The classic River Trips application is still available for use. It is updated with the new system using a data retrofit. It is no longer maintained. The original River Trips application is no longer updated (as of 1 Dec 2016) but can be checked for errors or for the condition of the data before it was converted to the new system.

Gauge Data Table

ObservationHeightDischargeMaximum
Discharge
Minimum
Discharge
Mean
Discharge
P05P10P20P25P50
(Median)
P75P80P90P95
2020-02-25 22:30 2.37 404 4710 (2018) 90 (2017) 678 91 97 100 282 602 603 3020
2020-02-25 22:00 2.36 399 4710 (2018) 90 (2017) 678 91 97 100 282 602 603 3020
2020-02-25 21:30 2.37 404 4710 (2018) 90 (2017) 678 91 97 100 282 602 603 3020
2020-02-25 21:00 2.37 404 4710 (2018) 90 (2017) 678 91 97 100 282 602 603 3020
2020-02-25 20:30 2.37 404 4710 (2018) 90 (2017) 678 91 97 100 282 602 603 3020
2020-02-25 20:00 2.38 408 4710 (2018) 90 (2017) 678 91 97 100 282 602 603 3020
2020-02-25 19:30 2.37 404 4710 (2018) 90 (2017) 678 91 97 100 282 602 603 3020
2020-02-25 19:00 2.37 404 4710 (2018) 90 (2017) 678 91 97 100 282 602 603 3020
2020-02-25 18:30 2.38 408 4710 (2018) 90 (2017) 678 91 97 100 282 602 603 3020
2020-02-25 18:00 2.39 412 4710 (2018) 90 (2017) 678 91 97 100 282 602 603 3020
2020-02-25 17:30 2.38 408 4710 (2018) 90 (2017) 678 91 97 100 282 602 603 3020
2020-02-25 17:00 2.39 412 4710 (2018) 90 (2017) 678 91 97 100 282 602 603 3020
2020-02-25 16:30 2.40 416 4710 (2018) 90 (2017) 678 91 97 100 282 602 603 3020
2020-02-25 16:00 2.39 412 4710 (2018) 90 (2017) 678 91 97 100 282 602 603 3020
2020-02-25 15:30 2.39 412 4710 (2018) 90 (2017) 678 91 97 100 282 602 603 3020
2020-02-25 15:00 2.39 412 4710 (2018) 90 (2017) 678 91 97 100 282 602 603 3020
2020-02-25 14:30 2.39 412 4710 (2018) 90 (2017) 678 91 97 100 282 602 603 3020
2020-02-25 14:00 2.39 412 4710 (2018) 90 (2017) 678 91 97 100 282 602 603 3020
2020-02-25 13:30 2.39 412 4710 (2018) 90 (2017) 678 91 97 100 282 602 603 3020
2020-02-25 13:00 2.39 412 4710 (2018) 90 (2017) 678 91 97 100 282 602 603 3020
2020-02-25 12:30 2.40 416 4710 (2018) 90 (2017) 678 91 97 100 282 602 603 3020
2020-02-25 12:00 2.39 412 4710 (2018) 90 (2017) 678 91 97 100 282 602 603 3020
2020-02-25 11:30 2.40 416 4710 (2018) 90 (2017) 678 91 97 100 282 602 603 3020
2020-02-25 11:00 2.39 412 4710 (2018) 90 (2017) 678 91 97 100 282 602 603 3020
2020-02-25 10:30 2.39 412 4710 (2018) 90 (2017) 678 91 97 100 282 602 603 3020
2020-02-25 10:00 2.38 408 4710 (2018) 90 (2017) 678 91 97 100 282 602 603 3020
2020-02-25 09:30 2.37 404 4710 (2018) 90 (2017) 678 91 97 100 282 602 603 3020
2020-02-25 09:00 2.40 416 4710 (2018) 90 (2017) 678 91 97 100 282 602 603 3020
2020-02-25 08:30 2.40 416 4710 (2018) 90 (2017) 678 91 97 100 282 602 603 3020
2020-02-25 08:00 2.39 412 4710 (2018) 90 (2017) 678 91 97 100 282 602 603 3020
2020-02-25 07:30 2.36 399 4710 (2018) 90 (2017) 678 91 97 100 282 602 603 3020
2020-02-25 07:00 2.36 399 4710 (2018) 90 (2017) 678 91 97 100 282 602 603 3020
2020-02-25 06:30 2.36 399 4710 (2018) 90 (2017) 678 91 97 100 282 602 603 3020
2020-02-25 06:00 2.35 395 4710 (2018) 90 (2017) 678 91 97 100 282 602 603 3020
2020-02-25 05:30 2.36 399 4710 (2018) 90 (2017) 678 91 97 100 282 602 603 3020
2020-02-25 05:00 2.35 395 4710 (2018) 90 (2017) 678 91 97 100 282 602 603 3020
2020-02-25 04:30 2.35 395 4710 (2018) 90 (2017) 678 91 97 100 282 602 603 3020
2020-02-25 04:00 2.36 399 4710 (2018) 90 (2017) 678 91 97 100 282 602 603 3020
2020-02-25 03:30 2.36 399 4710 (2018) 90 (2017) 678 91 97 100 282 602 603 3020
2020-02-25 03:00 2.35 395 4710 (2018) 90 (2017) 678 91 97 100 282 602 603 3020
2020-02-25 02:30 2.35 395 4710 (2018) 90 (2017) 678 91 97 100 282 602 603 3020
2020-02-25 02:00 2.35 395 4710 (2018) 90 (2017) 678 91 97 100 282 602 603 3020
2020-02-25 01:30 2.35 395 4710 (2018) 90 (2017) 678 91 97 100 282 602 603 3020
2020-02-25 01:00 2.36 399 4710 (2018) 90 (2017) 678 91 97 100 282 602 603 3020
2020-02-25 00:30 2.34 391 4710 (2018) 90 (2017) 678 91 97 100 282 602 603 3020
2020-02-25 00:00 2.35 395 4710 (2018) 90 (2017) 678 91 97 100 282 602 603 3020
2020-02-24 23:30 2.33 387 3080 (2018) 91 (2017) 462 92 97 102 177 472 490 1860
2020-02-24 23:00 2.32 383 3080 (2018) 91 (2017) 462 92 97 102 177 472 490 1860
2020-02-24 22:30 2.32 383 3080 (2018) 91 (2017) 462 92 97 102 177 472 490 1860
2020-02-24 22:00 2.30 376 3080 (2018) 91 (2017) 462 92 97 102 177 472 490 1860
2020-02-24 21:30 2.29 372 3080 (2018) 91 (2017) 462 92 97 102 177 472 490 1860
2020-02-24 21:00 2.29 372 3080 (2018) 91 (2017) 462 92 97 102 177 472 490 1860
2020-02-24 20:30 2.28 368 3080 (2018) 91 (2017) 462 92 97 102 177 472 490 1860
2020-02-24 20:00 2.27 364 3080 (2018) 91 (2017) 462 92 97 102 177 472 490 1860
2020-02-24 19:30 2.25 356 3080 (2018) 91 (2017) 462 92 97 102 177 472 490 1860
2020-02-24 19:00 2.24 352 3080 (2018) 91 (2017) 462 92 97 102 177 472 490 1860
2020-02-24 18:30 2.22 345 3080 (2018) 91 (2017) 462 92 97 102 177 472 490 1860
2020-02-24 18:00 2.21 341 3080 (2018) 91 (2017) 462 92 97 102 177 472 490 1860
2020-02-24 17:30 2.21 341 3080 (2018) 91 (2017) 462 92 97 102 177 472 490 1860
2020-02-24 17:00 2.21 341 3080 (2018) 91 (2017) 462 92 97 102 177 472 490 1860
2020-02-24 16:30 2.20 337 3080 (2018) 91 (2017) 462 92 97 102 177 472 490 1860
2020-02-24 16:00 2.19 333 3080 (2018) 91 (2017) 462 92 97 102 177 472 490 1860
2020-02-24 15:30 2.18 329 3080 (2018) 91 (2017) 462 92 97 102 177 472 490 1860
2020-02-24 15:00 2.19 333 3080 (2018) 91 (2017) 462 92 97 102 177 472 490 1860
2020-02-24 14:30 2.20 337 3080 (2018) 91 (2017) 462 92 97 102 177 472 490 1860
2020-02-24 14:00 2.19 333 3080 (2018) 91 (2017) 462 92 97 102 177 472 490 1860
2020-02-24 13:30 2.19 333 3080 (2018) 91 (2017) 462 92 97 102 177 472 490 1860
2020-02-24 13:00 2.19 333 3080 (2018) 91 (2017) 462 92 97 102 177 472 490 1860
2020-02-24 12:30 2.18 329 3080 (2018) 91 (2017) 462 92 97 102 177 472 490 1860
2020-02-24 12:00 2.19 333 3080 (2018) 91 (2017) 462 92 97 102 177 472 490 1860
2020-02-24 11:30 2.19 333 3080 (2018) 91 (2017) 462 92 97 102 177 472 490 1860
2020-02-24 11:00 2.19 333 3080 (2018) 91 (2017) 462 92 97 102 177 472 490 1860
2020-02-24 10:30 2.19 333 3080 (2018) 91 (2017) 462 92 97 102 177 472 490 1860
2020-02-24 10:00 2.19 333 3080 (2018) 91 (2017) 462 92 97 102 177 472 490 1860
2020-02-24 09:30 2.21 341 3080 (2018) 91 (2017) 462 92 97 102 177 472 490 1860
2020-02-24 09:00 2.19 333 3080 (2018) 91 (2017) 462 92 97 102 177 472 490 1860
2020-02-24 08:30 2.18 329 3080 (2018) 91 (2017) 462 92 97 102 177 472 490 1860
2020-02-24 08:00 2.17 325 3080 (2018) 91 (2017) 462 92 97 102 177 472 490 1860
2020-02-24 07:30 2.14 313 3080 (2018) 91 (2017) 462 92 97 102 177 472 490 1860
2020-02-24 07:00 2.10 298 3080 (2018) 91 (2017) 462 92 97 102 177 472 490 1860
2020-02-24 06:30 2.03 272 3080 (2018) 91 (2017) 462 92 97 102 177 472 490 1860
2020-02-24 06:00 1.98 255 3080 (2018) 91 (2017) 462 92 97 102 177 472 490 1860
2020-02-24 05:30 1.94 241 3080 (2018) 91 (2017) 462 92 97 102 177 472 490 1860
2020-02-24 05:00 1.92 234 3080 (2018) 91 (2017) 462 92 97 102 177 472 490 1860
2020-02-24 04:30 1.89 224 3080 (2018) 91 (2017) 462 92 97 102 177 472 490 1860
2020-02-24 04:00 1.86 215 3080 (2018) 91 (2017) 462 92 97 102 177 472 490 1860
2020-02-24 03:30 1.83 205 3080 (2018) 91 (2017) 462 92 97 102 177 472 490 1860
2020-02-24 03:00 1.82 202 3080 (2018) 91 (2017) 462 92 97 102 177 472 490 1860
2020-02-24 02:30 1.81 199 3080 (2018) 91 (2017) 462 92 97 102 177 472 490 1860
2020-02-24 02:00 1.80 196 3080 (2018) 91 (2017) 462 92 97 102 177 472 490 1860
2020-02-24 01:30 1.80 196 3080 (2018) 91 (2017) 462 92 97 102 177 472 490 1860
2020-02-24 01:00 1.79 193 3080 (2018) 91 (2017) 462 92 97 102 177 472 490 1860
2020-02-24 00:30 1.80 196 3080 (2018) 91 (2017) 462 92 97 102 177 472 490 1860
2020-02-24 00:00 1.79 193 3080 (2018) 91 (2017) 462 92 97 102 177 472 490 1860
2020-02-23 23:30 1.79 193 1700 (2018) 65 (2011) 344 77 101 110 150 487 600 1240
2020-02-23 23:00 1.78 190 1700 (2018) 65 (2011) 344 77 101 110 150 487 600 1240
2020-02-23 22:30 1.78 190 1700 (2018) 65 (2011) 344 77 101 110 150 487 600 1240
2020-02-23 22:00 1.79 193 1700 (2018) 65 (2011) 344 77 101 110 150 487 600 1240
2020-02-23 21:30 1.79 193 1700 (2018) 65 (2011) 344 77 101 110 150 487 600 1240
2020-02-23 21:00 1.78 190 1700 (2018) 65 (2011) 344 77 101 110 150 487 600 1240
2020-02-23 20:30 1.78 190 1700 (2018) 65 (2011) 344 77 101 110 150 487 600 1240
2020-02-23 20:00 1.79 193 1700 (2018) 65 (2011) 344 77 101 110 150 487 600 1240
2020-02-23 19:30 1.78 190 1700 (2018) 65 (2011) 344 77 101 110 150 487 600 1240
2020-02-23 19:00 1.80 196 1700 (2018) 65 (2011) 344 77 101 110 150 487 600 1240
2020-02-23 18:30 1.81 199 1700 (2018) 65 (2011) 344 77 101 110 150 487 600 1240
2020-02-23 18:00 1.79 193 1700 (2018) 65 (2011) 344 77 101 110 150 487 600 1240
2020-02-23 17:30 1.79 193 1700 (2018) 65 (2011) 344 77 101 110 150 487 600 1240
2020-02-23 17:00 1.79 193 1700 (2018) 65 (2011) 344 77 101 110 150 487 600 1240
2020-02-23 16:30 1.79 193 1700 (2018) 65 (2011) 344 77 101 110 150 487 600 1240
2020-02-23 16:00 1.79 193 1700 (2018) 65 (2011) 344 77 101 110 150 487 600 1240
2020-02-23 15:30 1.80 196 1700 (2018) 65 (2011) 344 77 101 110 150 487 600 1240
2020-02-23 15:00 1.80 196 1700 (2018) 65 (2011) 344 77 101 110 150 487 600 1240
2020-02-23 14:30 1.80 196 1700 (2018) 65 (2011) 344 77 101 110 150 487 600 1240
2020-02-23 14:00 1.80 196 1700 (2018) 65 (2011) 344 77 101 110 150 487 600 1240
2020-02-23 13:30 1.80 196 1700 (2018) 65 (2011) 344 77 101 110 150 487 600 1240
2020-02-23 13:00 1.80 196 1700 (2018) 65 (2011) 344 77 101 110 150 487 600 1240
2020-02-23 12:30 1.80 196 1700 (2018) 65 (2011) 344 77 101 110 150 487 600 1240
2020-02-23 12:00 1.80 196 1700 (2018) 65 (2011) 344 77 101 110 150 487 600 1240
2020-02-23 11:30 1.81 199 1700 (2018) 65 (2011) 344 77 101 110 150 487 600 1240
2020-02-23 11:00 1.81 199 1700 (2018) 65 (2011) 344 77 101 110 150 487 600 1240
2020-02-23 10:30 1.80 196 1700 (2018) 65 (2011) 344 77 101 110 150 487 600 1240
2020-02-23 10:00 1.80 196 1700 (2018) 65 (2011) 344 77 101 110 150 487 600 1240
2020-02-23 09:30 1.81 199 1700 (2018) 65 (2011) 344 77 101 110 150 487 600 1240
2020-02-23 09:00 1.81 199 1700 (2018) 65 (2011) 344 77 101 110 150 487 600 1240
2020-02-23 08:30 1.81 199 1700 (2018) 65 (2011) 344 77 101 110 150 487 600 1240
2020-02-23 08:00 1.81 199 1700 (2018) 65 (2011) 344 77 101 110 150 487 600 1240
2020-02-23 07:30 1.82 202 1700 (2018) 65 (2011) 344 77 101 110 150 487 600 1240
2020-02-23 07:00 1.82 202 1700 (2018) 65 (2011) 344 77 101 110 150 487 600 1240
2020-02-23 06:30 1.82 202 1700 (2018) 65 (2011) 344 77 101 110 150 487 600 1240
2020-02-23 06:00 1.81 199 1700 (2018) 65 (2011) 344 77 101 110 150 487 600 1240
2020-02-23 05:30 1.82 202 1700 (2018) 65 (2011) 344 77 101 110 150 487 600 1240
2020-02-23 05:00 1.82 202 1700 (2018) 65 (2011) 344 77 101 110 150 487 600 1240
2020-02-23 04:30 1.82 202 1700 (2018) 65 (2011) 344 77 101 110 150 487 600 1240
2020-02-23 04:00 1.82 202 1700 (2018) 65 (2011) 344 77 101 110 150 487 600 1240
2020-02-23 03:30 1.83 205 1700 (2018) 65 (2011) 344 77 101 110 150 487 600 1240
2020-02-23 03:00 1.82 202 1700 (2018) 65 (2011) 344 77 101 110 150 487 600 1240
2020-02-23 02:30 1.82 202 1700 (2018) 65 (2011) 344 77 101 110 150 487 600 1240
2020-02-23 02:00 1.82 202 1700 (2018) 65 (2011) 344 77 101 110 150 487 600 1240
2020-02-23 01:30 1.83 205 1700 (2018) 65 (2011) 344 77 101 110 150 487 600 1240
2020-02-23 01:00 1.82 202 1700 (2018) 65 (2011) 344 77 101 110 150 487 600 1240
2020-02-23 00:30 1.82 202 1700 (2018) 65 (2011) 344 77 101 110 150 487 600 1240
2020-02-23 00:00 1.83 205 1700 (2018) 65 (2011) 344 77 101 110 150 487 600 1240
2020-02-22 23:30 1.83 205 2680 (2018) 68 (2011) 431 77 103 113 165 541 679 1740
2020-02-22 23:00 1.83 205 2680 (2018) 68 (2011) 431 77 103 113 165 541 679 1740
2020-02-22 22:30 1.84 208 2680 (2018) 68 (2011) 431 77 103 113 165 541 679 1740
2020-02-22 22:00 1.83 205 2680 (2018) 68 (2011) 431 77 103 113 165 541 679 1740
2020-02-22 21:30 1.83 205 2680 (2018) 68 (2011) 431 77 103 113 165 541 679 1740
2020-02-22 21:00 1.83 205 2680 (2018) 68 (2011) 431 77 103 113 165 541 679 1740
2020-02-22 20:30 1.84 208 2680 (2018) 68 (2011) 431 77 103 113 165 541 679 1740
2020-02-22 20:00 1.83 205 2680 (2018) 68 (2011) 431 77 103 113 165 541 679 1740
2020-02-22 19:30 1.84 208 2680 (2018) 68 (2011) 431 77 103 113 165 541 679 1740
2020-02-22 19:00 1.84 208 2680 (2018) 68 (2011) 431 77 103 113 165 541 679 1740
2020-02-22 18:30 1.84 208 2680 (2018) 68 (2011) 431 77 103 113 165 541 679 1740
2020-02-22 18:00 1.84 208 2680 (2018) 68 (2011) 431 77 103 113 165 541 679 1740
2020-02-22 17:30 1.85 212 2680 (2018) 68 (2011) 431 77 103 113 165 541 679 1740
2020-02-22 17:00 1.85 212 2680 (2018) 68 (2011) 431 77 103 113 165 541 679 1740
2020-02-22 16:30 1.85 212 2680 (2018) 68 (2011) 431 77 103 113 165 541 679 1740
2020-02-22 16:00 1.85 212 2680 (2018) 68 (2011) 431 77 103 113 165 541 679 1740
2020-02-22 15:30 1.85 212 2680 (2018) 68 (2011) 431 77 103 113 165 541 679 1740
2020-02-22 15:00 1.85 212 2680 (2018) 68 (2011) 431 77 103 113 165 541 679 1740
2020-02-22 14:30 1.85 212 2680 (2018) 68 (2011) 431 77 103 113 165 541 679 1740
2020-02-22 14:00 1.86 215 2680 (2018) 68 (2011) 431 77 103 113 165 541 679 1740
2020-02-22 13:30 1.84 208 2680 (2018) 68 (2011) 431 77 103 113 165 541 679 1740
2020-02-22 13:00 1.84 208 2680 (2018) 68 (2011) 431 77 103 113 165 541 679 1740
2020-02-22 12:30 1.85 212 2680 (2018) 68 (2011) 431 77 103 113 165 541 679 1740
2020-02-22 12:00 1.85 212 2680 (2018) 68 (2011) 431 77 103 113 165 541 679 1740
2020-02-22 11:30 1.85 212 2680 (2018) 68 (2011) 431 77 103 113 165 541 679 1740
2020-02-22 11:00 1.85 212 2680 (2018) 68 (2011) 431 77 103 113 165 541 679 1740
2020-02-22 10:30 1.87 218 2680 (2018) 68 (2011) 431 77 103 113 165 541 679 1740
2020-02-22 10:00 1.86 215 2680 (2018) 68 (2011) 431 77 103 113 165 541 679 1740
2020-02-22 09:30 1.86 215 2680 (2018) 68 (2011) 431 77 103 113 165 541 679 1740
2020-02-22 09:00 1.87 218 2680 (2018) 68 (2011) 431 77 103 113 165 541 679 1740
2020-02-22 08:30 1.88 221 2680 (2018) 68 (2011) 431 77 103 113 165 541 679 1740
2020-02-22 08:00 1.88 221 2680 (2018) 68 (2011) 431 77 103 113 165 541 679 1740
2020-02-22 07:30 1.87 218 2680 (2018) 68 (2011) 431 77 103 113 165 541 679 1740
2020-02-22 07:00 1.87 218 2680 (2018) 68 (2011) 431 77 103 113 165 541 679 1740
2020-02-22 06:30 1.87 218 2680 (2018) 68 (2011) 431 77 103 113 165 541 679 1740
2020-02-22 06:00 1.87 218 2680 (2018) 68 (2011) 431 77 103 113 165 541 679 1740
2020-02-22 05:30 1.87 218 2680 (2018) 68 (2011) 431 77 103 113 165 541 679 1740
2020-02-22 05:00 1.88 221 2680 (2018) 68 (2011) 431 77 103 113 165 541 679 1740
2020-02-22 04:30 1.88 221 2680 (2018) 68 (2011) 431 77 103 113 165 541 679 1740
2020-02-22 04:00 1.88 221 2680 (2018) 68 (2011) 431 77 103 113 165 541 679 1740
2020-02-22 03:30 1.88 221 2680 (2018) 68 (2011) 431 77 103 113 165 541 679 1740
2020-02-22 03:00 1.88 221 2680 (2018) 68 (2011) 431 77 103 113 165 541 679 1740
2020-02-22 02:30 1.90 228 2680 (2018) 68 (2011) 431 77 103 113 165 541 679 1740
2020-02-22 02:00 1.89 224 2680 (2018) 68 (2011) 431 77 103 113 165 541 679 1740
2020-02-22 01:30 1.89 224 2680 (2018) 68 (2011) 431 77 103 113 165 541 679 1740
2020-02-22 01:00 1.89 224 2680 (2018) 68 (2011) 431 77 103 113 165 541 679 1740
2020-02-22 00:30 1.90 228 2680 (2018) 68 (2011) 431 77 103 113 165 541 679 1740
2020-02-22 00:00 1.90 228 2680 (2018) 68 (2011) 431 77 103 113 165 541 679 1740
2020-02-21 23:30 1.89 224 4780 (2018) 72 (2011) 596 76 88 99 159 351 526 3080
2020-02-21 23:00 1.91 231 4780 (2018) 72 (2011) 596 76 88 99 159 351 526 3080
2020-02-21 22:30 1.90 228 4780 (2018) 72 (2011) 596 76 88 99 159 351 526 3080
2020-02-21 22:00 1.91 231 4780 (2018) 72 (2011) 596 76 88 99 159 351 526 3080
2020-02-21 21:30 1.90 228 4780 (2018) 72 (2011) 596 76 88 99 159 351 526 3080
2020-02-21 21:00 1.89 224 4780 (2018) 72 (2011) 596 76 88 99 159 351 526 3080
2020-02-21 20:30 1.90 228 4780 (2018) 72 (2011) 596 76 88 99 159 351 526 3080
2020-02-21 20:00 1.89 224 4780 (2018) 72 (2011) 596 76 88 99 159 351 526 3080
2020-02-21 19:30 1.89 224 4780 (2018) 72 (2011) 596 76 88 99 159 351 526 3080
2020-02-21 19:00 1.89 224 4780 (2018) 72 (2011) 596 76 88 99 159 351 526 3080
2020-02-21 18:30 1.89 224 4780 (2018) 72 (2011) 596 76 88 99 159 351 526 3080
2020-02-21 18:00 1.89 224 4780 (2018) 72 (2011) 596 76 88 99 159 351 526 3080
2020-02-21 17:30 1.89 224 4780 (2018) 72 (2011) 596 76 88 99 159 351 526 3080
2020-02-21 17:00 1.90 228 4780 (2018) 72 (2011) 596 76 88 99 159 351 526 3080
2020-02-21 16:30 1.90 228 4780 (2018) 72 (2011) 596 76 88 99 159 351 526 3080
2020-02-21 16:00 1.90 228 4780 (2018) 72 (2011) 596 76 88 99 159 351 526 3080
2020-02-21 15:30 1.90 228 4780 (2018) 72 (2011) 596 76 88 99 159 351 526 3080
2020-02-21 15:00 1.91 231 4780 (2018) 72 (2011) 596 76 88 99 159 351 526 3080
2020-02-21 14:30 1.90 228 4780 (2018) 72 (2011) 596 76 88 99 159 351 526 3080
2020-02-21 14:00 1.91 231 4780 (2018) 72 (2011) 596 76 88 99 159 351 526 3080
2020-02-21 13:30 1.90 228 4780 (2018) 72 (2011) 596 76 88 99 159 351 526 3080
2020-02-21 13:00 1.91 231 4780 (2018) 72 (2011) 596 76 88 99 159 351 526 3080
2020-02-21 12:30 1.91 231 4780 (2018) 72 (2011) 596 76 88 99 159 351 526 3080
2020-02-21 12:00 1.92 234 4780 (2018) 72 (2011) 596 76 88 99 159 351 526 3080
2020-02-21 11:30 1.91 231 4780 (2018) 72 (2011) 596 76 88 99 159 351 526 3080
2020-02-21 11:00 1.92 234 4780 (2018) 72 (2011) 596 76 88 99 159 351 526 3080
2020-02-21 10:30 1.92 234 4780 (2018) 72 (2011) 596 76 88 99 159 351 526 3080
2020-02-21 10:00 1.92 234 4780 (2018) 72 (2011) 596 76 88 99 159 351 526 3080
2020-02-21 09:30 1.92 234 4780 (2018) 72 (2011) 596 76 88 99 159 351 526 3080
2020-02-21 09:00 1.92 234 4780 (2018) 72 (2011) 596 76 88 99 159 351 526 3080
2020-02-21 08:30 1.93 238 4780 (2018) 72 (2011) 596 76 88 99 159 351 526 3080
2020-02-21 08:00 1.93 238 4780 (2018) 72 (2011) 596 76 88 99 159 351 526 3080
2020-02-21 07:30 1.93 238 4780 (2018) 72 (2011) 596 76 88 99 159 351 526 3080
2020-02-21 07:00 1.93 238 4780 (2018) 72 (2011) 596 76 88 99 159 351 526 3080
2020-02-21 06:30 1.93 238 4780 (2018) 72 (2011) 596 76 88 99 159 351 526 3080
2020-02-21 06:00 1.94 241 4780 (2018) 72 (2011) 596 76 88 99 159 351 526 3080
2020-02-21 05:30 1.94 241 4780 (2018) 72 (2011) 596 76 88 99 159 351 526 3080
2020-02-21 05:00 1.94 241 4780 (2018) 72 (2011) 596 76 88 99 159 351 526 3080
2020-02-21 04:30 1.94 241 4780 (2018) 72 (2011) 596 76 88 99 159 351 526 3080
2020-02-21 04:00 1.94 241 4780 (2018) 72 (2011) 596 76 88 99 159 351 526 3080
2020-02-21 03:30 1.94 241 4780 (2018) 72 (2011) 596 76 88 99 159 351 526 3080
2020-02-21 03:00 1.95 244 4780 (2018) 72 (2011) 596 76 88 99 159 351 526 3080
2020-02-21 02:30 1.94 241 4780 (2018) 72 (2011) 596 76 88 99 159 351 526 3080
2020-02-21 02:00 1.95 244 4780 (2018) 72 (2011) 596 76 88 99 159 351 526 3080
2020-02-21 01:30 1.95 244 4780 (2018) 72 (2011) 596 76 88 99 159 351 526 3080
2020-02-21 01:00 1.95 244 4780 (2018) 72 (2011) 596 76 88 99 159 351 526 3080
2020-02-21 00:30 1.95 244 4780 (2018) 72 (2011) 596 76 88 99 159 351 526 3080
2020-02-21 00:00 1.95 244 4780 (2018) 72 (2011) 596 76 88 99 159 351 526 3080
2020-02-20 23:30 1.96 248 2480 (2019) 53 (2015) 346 63 77 95 148 250 258 1580
2020-02-20 23:00 1.96 248 2480 (2019) 53 (2015) 346 63 77 95 148 250 258 1580
2020-02-20 22:30 1.96 248 2480 (2019) 53 (2015) 346 63 77 95 148 250 258 1580
2020-02-20 22:00 1.96 248 2480 (2019) 53 (2015) 346 63 77 95 148 250 258 1580
2020-02-20 21:30 1.96 248 2480 (2019) 53 (2015) 346 63 77 95 148 250 258 1580
2020-02-20 21:00 1.97 251 2480 (2019) 53 (2015) 346 63 77 95 148 250 258 1580
2020-02-20 20:30 1.97 251 2480 (2019) 53 (2015) 346 63 77 95 148 250 258 1580
2020-02-20 20:00 1.97 251 2480 (2019) 53 (2015) 346 63 77 95 148 250 258 1580
2020-02-20 19:30 1.97 251 2480 (2019) 53 (2015) 346 63 77 95 148 250 258 1580
2020-02-20 19:00 1.98 255 2480 (2019) 53 (2015) 346 63 77 95 148 250 258 1580
2020-02-20 18:30 1.98 255 2480 (2019) 53 (2015) 346 63 77 95 148 250 258 1580
2020-02-20 18:00 1.98 255 2480 (2019) 53 (2015) 346 63 77 95 148 250 258 1580
2020-02-20 17:30 1.98 255 2480 (2019) 53 (2015) 346 63 77 95 148 250 258 1580
2020-02-20 17:00 1.98 255 2480 (2019) 53 (2015) 346 63 77 95 148 250 258 1580
2020-02-20 16:30 1.98 255 2480 (2019) 53 (2015) 346 63 77 95 148 250 258 1580
2020-02-20 16:00 1.99 258 2480 (2019) 53 (2015) 346 63 77 95 148 250 258 1580
2020-02-20 15:30 1.98 255 2480 (2019) 53 (2015) 346 63 77 95 148 250 258 1580
2020-02-20 15:00 2.00 262 2480 (2019) 53 (2015) 346 63 77 95 148 250 258 1580
2020-02-20 14:30 2.00 262 2480 (2019) 53 (2015) 346 63 77 95 148 250 258 1580
2020-02-20 14:00 1.99 258 2480 (2019) 53 (2015) 346 63 77 95 148 250 258 1580
2020-02-20 13:30 1.99 258 2480 (2019) 53 (2015) 346 63 77 95 148 250 258 1580
2020-02-20 13:00 2.00 262 2480 (2019) 53 (2015) 346 63 77 95 148 250 258 1580
2020-02-20 12:30 2.00 262 2480 (2019) 53 (2015) 346 63 77 95 148 250 258 1580
2020-02-20 12:00 2.01 265 2480 (2019) 53 (2015) 346 63 77 95 148 250 258 1580
2020-02-20 11:30 2.01 265 2480 (2019) 53 (2015) 346 63 77 95 148 250 258 1580
2020-02-20 11:00 2.01 265 2480 (2019) 53 (2015) 346 63 77 95 148 250 258 1580
2020-02-20 10:30 2.02 269 2480 (2019) 53 (2015) 346 63 77 95 148 250 258 1580
2020-02-20 10:00 2.01 265 2480 (2019) 53 (2015) 346 63 77 95 148 250 258 1580
2020-02-20 09:30 2.02 269 2480 (2019) 53 (2015) 346 63 77 95 148 250 258 1580
2020-02-20 09:00 2.01 265 2480 (2019) 53 (2015) 346 63 77 95 148 250 258 1580
2020-02-20 08:30 2.02 269 2480 (2019) 53 (2015) 346 63 77 95 148 250 258 1580
2020-02-20 08:00 2.02 269 2480 (2019) 53 (2015) 346 63 77 95 148 250 258 1580
2020-02-20 07:30 2.03 272 2480 (2019) 53 (2015) 346 63 77 95 148 250 258 1580
2020-02-20 07:00 2.02 269 2480 (2019) 53 (2015) 346 63 77 95 148 250 258 1580
2020-02-20 06:30 2.03 272 2480 (2019) 53 (2015) 346 63 77 95 148 250 258 1580
2020-02-20 06:00 2.03 272 2480 (2019) 53 (2015) 346 63 77 95 148 250 258 1580
2020-02-20 05:30 2.04 276 2480 (2019) 53 (2015) 346 63 77 95 148 250 258 1580
2020-02-20 05:00 2.04 276 2480 (2019) 53 (2015) 346 63 77 95 148 250 258 1580
2020-02-20 04:30 2.04 276 2480 (2019) 53 (2015) 346 63 77 95 148 250 258 1580
2020-02-20 04:00 2.04 276 2480 (2019) 53 (2015) 346 63 77 95 148 250 258 1580
2020-02-20 03:30 2.04 276 2480 (2019) 53 (2015) 346 63 77 95 148 250 258 1580
2020-02-20 03:00 2.04 276 2480 (2019) 53 (2015) 346 63 77 95 148 250 258 1580
2020-02-20 02:30 2.04 276 2480 (2019) 53 (2015) 346 63 77 95 148 250 258 1580
2020-02-20 02:00 2.04 276 2480 (2019) 53 (2015) 346 63 77 95 148 250 258 1580
2020-02-20 01:30 2.05 280 2480 (2019) 53 (2015) 346 63 77 95 148 250 258 1580
2020-02-20 01:00 2.05 280 2480 (2019) 53 (2015) 346 63 77 95 148 250 258 1580
2020-02-20 00:30 2.05 280 2480 (2019) 53 (2015) 346 63 77 95 148 250 258 1580
2020-02-20 00:00 2.06 283 2480 (2019) 53 (2015) 346 63 77 95 148 250 258 1580
2020-02-19 23:30 2.06 283 1060 (2008) 54 (2015) 233 65 81 92 163 282 305 722
2020-02-19 23:00 2.06 283 1060 (2008) 54 (2015) 233 65 81 92 163 282 305 722
2020-02-19 22:30 2.06 283 1060 (2008) 54 (2015) 233 65 81 92 163 282 305 722
2020-02-19 22:00 2.06 283 1060 (2008) 54 (2015) 233 65 81 92 163 282 305 722
2020-02-19 21:30 2.07 287 1060 (2008) 54 (2015) 233 65 81 92 163 282 305 722
2020-02-19 21:00 2.07 287 1060 (2008) 54 (2015) 233 65 81 92 163 282 305 722
2020-02-19 20:30 2.08 291 1060 (2008) 54 (2015) 233 65 81 92 163 282 305 722
2020-02-19 20:00 2.07 287 1060 (2008) 54 (2015) 233 65 81 92 163 282 305 722
2020-02-19 19:30 2.08 291 1060 (2008) 54 (2015) 233 65 81 92 163 282 305 722
2020-02-19 19:00 2.08 291 1060 (2008) 54 (2015) 233 65 81 92 163 282 305 722
2020-02-19 18:30 2.08 291 1060 (2008) 54 (2015) 233 65 81 92 163 282 305 722
2020-02-19 18:00 2.09 294 1060 (2008) 54 (2015) 233 65 81 92 163 282 305 722
2020-02-19 17:30 2.09 294 1060 (2008) 54 (2015) 233 65 81 92 163 282 305 722
2020-02-19 17:00 2.09 294 1060 (2008) 54 (2015) 233 65 81 92 163 282 305 722
2020-02-19 16:30 2.09 294 1060 (2008) 54 (2015) 233 65 81 92 163 282 305 722
2020-02-19 16:00 2.09 294 1060 (2008) 54 (2015) 233 65 81 92 163 282 305 722
2020-02-19 15:30 2.10 298 1060 (2008) 54 (2015) 233 65 81 92 163 282 305 722
2020-02-19 15:00 2.10 298 1060 (2008) 54 (2015) 233 65 81 92 163 282 305 722
2020-02-19 14:30 2.10 298 1060 (2008) 54 (2015) 233 65 81 92 163 282 305 722
2020-02-19 14:00 2.10 298 1060 (2008) 54 (2015) 233 65 81 92 163 282 305 722
2020-02-19 13:30 2.11 302 1060 (2008) 54 (2015) 233 65 81 92 163 282 305 722
2020-02-19 13:00 2.11 302 1060 (2008) 54 (2015) 233 65 81 92 163 282 305 722
2020-02-19 12:30 2.11 302 1060 (2008) 54 (2015) 233 65 81 92 163 282 305 722
2020-02-19 12:00 2.11 302 1060 (2008) 54 (2015) 233 65 81 92 163 282 305 722
2020-02-19 11:30 2.12 306 1060 (2008) 54 (2015) 233 65 81 92 163 282 305 722
2020-02-19 11:00 2.13 310 1060 (2008) 54 (2015) 233 65 81 92 163 282 305 722
2020-02-19 10:30 2.12 306 1060 (2008) 54 (2015) 233 65 81 92 163 282 305 722
2020-02-19 10:00 2.12 306 1060 (2008) 54 (2015) 233 65 81 92 163 282 305 722
2020-02-19 09:30 2.13 310 1060 (2008) 54 (2015) 233 65 81 92 163 282 305 722
2020-02-19 09:00 2.13 310 1060 (2008) 54 (2015) 233 65 81 92 163 282 305 722
2020-02-19 08:30 2.13 310 1060 (2008) 54 (2015) 233 65 81 92 163 282 305 722
2020-02-19 08:00 2.13 310 1060 (2008) 54 (2015) 233 65 81 92 163 282 305 722
2020-02-19 07:30 2.14 313 1060 (2008) 54 (2015) 233 65 81 92 163 282 305 722
2020-02-19 07:00 2.14 313 1060 (2008) 54 (2015) 233 65 81 92 163 282 305 722
2020-02-19 06:30 2.14 313 1060 (2008) 54 (2015) 233 65 81 92 163 282 305 722
2020-02-19 06:00 2.15 317 1060 (2008) 54 (2015) 233 65 81 92 163 282 305 722
2020-02-19 05:30 2.15 317 1060 (2008) 54 (2015) 233 65 81 92 163 282 305 722
2020-02-19 05:00 2.15 317 1060 (2008) 54 (2015) 233 65 81 92 163 282 305 722
2020-02-19 04:30 2.15 317 1060 (2008) 54 (2015) 233 65 81 92 163 282 305 722
2020-02-19 04:00 2.15 317 1060 (2008) 54 (2015) 233 65 81 92 163 282 305 722
2020-02-19 03:30 2.15 317 1060 (2008) 54 (2015) 233 65 81 92 163 282 305 722
2020-02-19 03:00 2.16 321 1060 (2008) 54 (2015) 233 65 81 92 163 282 305 722
2020-02-19 02:30 2.17 325 1060 (2008) 54 (2015) 233 65 81 92 163 282 305 722
2020-02-19 02:00 2.17 325 1060 (2008) 54 (2015) 233 65 81 92 163 282 305 722
2020-02-19 01:30 2.17 325 1060 (2008) 54 (2015) 233 65 81 92 163 282 305 722
2020-02-19 01:00 2.18 329 1060 (2008) 54 (2015) 233 65 81 92 163 282 305 722
2020-02-19 00:30 2.19 333 1060 (2008) 54 (2015) 233 65 81 92 163 282 305 722
2020-02-19 00:00 2.18 329 1060 (2008) 54 (2015) 233 65 81 92 163 282 305 722
2020-02-18 23:30 2.18 329 2440 (2008) 59 (2015) 340 65 81 87 159 329 369 1410
2020-02-18 23:00 2.18 329 2440 (2008) 59 (2015) 340 65 81 87 159 329 369 1410
2020-02-18 22:30 2.19 333 2440 (2008) 59 (2015) 340 65 81 87 159 329 369 1410
2020-02-18 22:00 2.19 333 2440 (2008) 59 (2015) 340 65 81 87 159 329 369 1410
2020-02-18 21:30 2.19 333 2440 (2008) 59 (2015) 340 65 81 87 159 329 369 1410
2020-02-18 21:00 2.20 337 2440 (2008) 59 (2015) 340 65 81 87 159 329 369 1410
2020-02-18 20:30 2.20 337 2440 (2008) 59 (2015) 340 65 81 87 159 329 369 1410
2020-02-18 20:00 2.21 341 2440 (2008) 59 (2015) 340 65 81 87 159 329 369 1410
2020-02-18 19:30 2.21 341 2440 (2008) 59 (2015) 340 65 81 87 159 329 369 1410
2020-02-18 19:00 2.21 341 2440 (2008) 59 (2015) 340 65 81 87 159 329 369 1410
2020-02-18 18:30 2.21 341 2440 (2008) 59 (2015) 340 65 81 87 159 329 369 1410
2020-02-18 18:00 2.21 341 2440 (2008) 59 (2015) 340 65 81 87 159 329 369 1410
2020-02-18 17:30 2.22 345 2440 (2008) 59 (2015) 340 65 81 87 159 329 369 1410
2020-02-18 17:00 2.22 345 2440 (2008) 59 (2015) 340 65 81 87 159 329 369 1410
2020-02-18 16:30 2.23 349 2440 (2008) 59 (2015) 340 65 81 87 159 329 369 1410
2020-02-18 16:00 2.23 349 2440 (2008) 59 (2015) 340 65 81 87 159 329 369 1410
2020-02-18 15:30 2.23 349 2440 (2008) 59 (2015) 340 65 81 87 159 329 369 1410
2020-02-18 15:00 2.24 352 2440 (2008) 59 (2015) 340 65 81 87 159 329 369 1410
2020-02-18 14:30 2.23 349 2440 (2008) 59 (2015) 340 65 81 87 159 329 369 1410
2020-02-18 14:00 2.24 352 2440 (2008) 59 (2015) 340 65 81 87 159 329 369 1410
2020-02-18 13:30 2.25 356 2440 (2008) 59 (2015) 340 65 81 87 159 329 369 1410
2020-02-18 13:00 2.25 356 2440 (2008) 59 (2015) 340 65 81 87 159 329 369 1410
2020-02-18 12:30 2.24 352 2440 (2008) 59 (2015) 340 65 81 87 159 329 369 1410
2020-02-18 12:00 2.25 356 2440 (2008) 59 (2015) 340 65 81 87 159 329 369 1410
2020-02-18 11:30 2.26 360 2440 (2008) 59 (2015) 340 65 81 87 159 329 369 1410
2020-02-18 11:00 2.26 360 2440 (2008) 59 (2015) 340 65 81 87 159 329 369 1410
2020-02-18 10:30 2.27 364 2440 (2008) 59 (2015) 340 65 81 87 159 329 369 1410
2020-02-18 10:00 2.26 360 2440 (2008) 59 (2015) 340 65 81 87 159 329 369 1410
2020-02-18 09:30 2.28 368 2440 (2008) 59 (2015) 340 65 81 87 159 329 369 1410
2020-02-18 09:00 2.28 368 2440 (2008) 59 (2015) 340 65 81 87 159 329 369 1410
2020-02-18 08:30 2.29 372 2440 (2008) 59 (2015) 340 65 81 87 159 329 369 1410
2020-02-18 08:00 2.29 372 2440 (2008) 59 (2015) 340 65 81 87 159 329 369 1410
2020-02-18 07:30 2.28 368 2440 (2008) 59 (2015) 340 65 81 87 159 329 369 1410
2020-02-18 07:00 2.30 376 2440 (2008) 59 (2015) 340 65 81 87 159 329 369 1410
2020-02-18 06:30 2.30 376 2440 (2008) 59 (2015) 340 65 81 87 159 329 369 1410
2020-02-18 06:00 2.29 372 2440 (2008) 59 (2015) 340 65 81 87 159 329 369 1410
2020-02-18 05:30 2.30 376 2440 (2008) 59 (2015) 340 65 81 87 159 329 369 1410
2020-02-18 05:00 2.31 380 2440 (2008) 59 (2015) 340 65 81 87 159 329 369 1410
2020-02-18 04:30 2.31 380 2440 (2008) 59 (2015) 340 65 81 87 159 329 369 1410
2020-02-18 04:00 2.31 380 2440 (2008) 59 (2015) 340 65 81 87 159 329 369 1410
2020-02-18 03:30 2.32 383 2440 (2008) 59 (2015) 340 65 81 87 159 329 369 1410
2020-02-18 03:00 2.32 383 2440 (2008) 59 (2015) 340 65 81 87 159 329 369 1410
2020-02-18 02:30 2.32 383 2440 (2008) 59 (2015) 340 65 81 87 159 329 369 1410
2020-02-18 02:00 2.33 387 2440 (2008) 59 (2015) 340 65 81 87 159 329 369 1410
2020-02-18 01:30 2.32 383 2440 (2008) 59 (2015) 340 65 81 87 159 329 369 1410
2020-02-18 01:00 2.32 383 2440 (2008) 59 (2015) 340 65 81 87 159 329 369 1410
2020-02-18 00:30 2.32 383 2440 (2008) 59 (2015) 340 65 81 87 159 329 369 1410
2020-02-18 00:00 2.32 383 2440 (2008) 59 (2015) 340 65 81 87 159 329 369 1410

A total of 382 rows are displayed for years 2006 through 2019.